createdAt,value
2023-04-10T00:00:06.775Z,4.76
2023-04-10T00:02:54.150Z,4.75
2023-04-10T00:05:22.005Z,4.67
2023-04-10T00:07:49.053Z,4.65
2023-04-10T00:10:16.909Z,4.60
2023-04-10T00:12:43.978Z,4.56
2023-04-10T00:15:11.539Z,4.53
2023-04-10T00:17:39.046Z,4.53
2023-04-10T00:20:07.158Z,4.49
2023-04-10T00:22:34.278Z,4.44
2023-04-10T00:25:01.678Z,4.30
2023-04-10T00:27:28.877Z,4.21
2023-04-10T00:29:56.441Z,4.22
2023-04-10T00:32:24.082Z,4.23
2023-04-10T00:34:51.665Z,4.25
2023-04-10T00:37:19.012Z,4.11
2023-04-10T00:39:46.356Z,4.20
2023-04-10T00:42:13.609Z,4.20
2023-04-10T00:44:41.564Z,4.18
2023-04-10T00:47:08.647Z,4.22
2023-04-10T00:49:36.293Z,4.27
2023-04-10T00:52:03.520Z,4.25
2023-04-10T00:54:31.774Z,4.22
2023-04-10T00:56:59.018Z,4.13
2023-04-10T00:59:26.648Z,4.05
2023-04-10T01:01:53.874Z,3.95
2023-04-10T01:04:22.644Z,3.83
2023-04-10T01:07:00.692Z,3.79
2023-04-10T01:09:59.236Z,3.76
2023-04-10T01:12:57.975Z,3.79
2023-04-10T01:15:29.443Z,3.82
2023-04-10T01:18:18.576Z,3.82
2023-04-10T01:20:46.078Z,3.76
2023-04-10T01:23:25.541Z,3.73
2023-04-10T01:25:57.161Z,3.63
2023-04-10T01:28:49.323Z,3.70
2023-04-10T01:31:21.528Z,3.67
2023-04-10T01:33:51.071Z,3.63
2023-04-10T01:36:41.851Z,3.53
2023-04-10T01:39:09.897Z,3.61
2023-04-10T01:41:38.762Z,3.58
2023-04-10T01:44:06.406Z,3.57
2023-04-10T01:46:34.311Z,3.55
2023-04-10T01:49:02.649Z,3.53
2023-04-10T01:51:31.442Z,3.53
2023-04-10T01:54:01.673Z,3.48
2023-04-10T01:56:29.707Z,3.37
2023-04-10T01:58:57.374Z,3.40
2023-04-10T02:01:29.722Z,3.41
2023-04-10T02:03:59.340Z,3.35
2023-04-10T02:06:50.071Z,3.33
2023-04-10T02:09:29.406Z,3.33
2023-04-10T02:12:07.225Z,3.29
2023-04-10T02:14:37.314Z,3.27
2023-04-10T02:17:05.099Z,3.21
2023-04-10T02:19:33.222Z,3.19
2023-04-10T02:22:00.829Z,3.14
2023-04-10T02:24:28.504Z,3.08
2023-04-10T02:26:56.568Z,3.12
2023-04-10T02:29:23.864Z,3.07
2023-04-10T02:31:51.341Z,3.10
2023-04-10T02:34:19.771Z,3.09
2023-04-10T02:36:47.149Z,3.08
2023-04-10T02:39:14.478Z,3.05
2023-04-10T02:41:48.802Z,3.06
2023-04-10T02:44:16.338Z,3.03
2023-04-10T02:46:44.575Z,3.02
2023-04-10T02:49:12.978Z,3.01
2023-04-10T02:51:40.715Z,3.02
2023-04-10T02:54:07.799Z,2.96
2023-04-10T02:56:36.517Z,2.92
2023-04-10T02:59:03.843Z,2.88
2023-04-10T03:01:32.239Z,2.83
2023-04-10T03:04:00.512Z,2.82
2023-04-10T03:06:31.852Z,2.83
2023-04-10T03:08:59.506Z,2.81
2023-04-10T03:11:28.281Z,2.80
2023-04-10T03:13:58.313Z,2.80
2023-04-10T03:16:26.567Z,2.84
2023-04-10T03:18:54.057Z,2.81
2023-04-10T03:21:22.078Z,2.78
2023-04-10T03:23:49.761Z,2.76
2023-04-10T03:26:17.178Z,2.77
2023-04-10T03:28:44.413Z,2.73
2023-04-10T03:31:12.662Z,2.68
2023-04-10T03:33:42.485Z,2.71
2023-04-10T03:36:11.623Z,2.71
2023-04-10T03:38:38.981Z,2.71
2023-04-10T03:41:09.251Z,2.72
2023-04-10T03:43:36.734Z,2.58
2023-04-10T03:46:05.826Z,2.48
2023-04-10T03:48:36.560Z,2.44
2023-04-10T03:51:04.149Z,2.30
2023-04-10T03:53:36.203Z,2.24
2023-04-10T03:56:08.732Z,2.23
2023-04-10T03:58:36.698Z,2.28
2023-04-10T04:01:05.455Z,2.26
2023-04-10T04:03:39.669Z,2.25
2023-04-10T04:06:27.518Z,2.21
2023-04-10T04:09:21.895Z,2.20
2023-04-10T04:12:08.193Z,2.19
2023-04-10T04:14:53.724Z,2.27
2023-04-10T04:17:37.342Z,2.30
2023-04-10T04:20:06.247Z,2.30
2023-04-10T04:22:51.954Z,2.32
2023-04-10T04:25:39.343Z,2.42
2023-04-10T04:28:30.453Z,2.41
2023-04-10T04:31:16.839Z,2.47
2023-04-10T04:34:04.693Z,2.53
2023-04-10T04:36:50.641Z,2.61
2023-04-10T04:39:36.496Z,2.72
2023-04-10T04:42:21.869Z,2.83
2023-04-10T04:45:15.520Z,2.94
2023-04-10T04:48:01.036Z,2.95
2023-04-10T04:50:47.136Z,3.06
2023-04-10T04:53:37.637Z,3.27
2023-04-10T04:56:25.735Z,3.51
2023-04-10T04:59:19.240Z,3.77
2023-04-10T05:02:05.702Z,4.07
2023-04-10T05:04:51.784Z,4.37
2023-04-10T05:07:29.779Z,4.64
2023-04-10T05:10:17.384Z,4.91
2023-04-10T05:13:08.002Z,5.33
2023-04-10T05:15:45.427Z,5.73
2023-04-10T05:18:31.697Z,6.22
2023-04-10T05:21:07.376Z,6.62
2023-04-10T05:23:44.821Z,7.03
2023-04-10T05:26:28.880Z,7.41
2023-04-10T05:29:14.918Z,7.75
2023-04-10T05:32:00.667Z,7.98
2023-04-10T05:34:46.554Z,8.08
2023-04-10T05:37:34.123Z,8.11
2023-04-10T05:40:22.201Z,8.18
2023-04-10T05:43:08.589Z,8.24
2023-04-10T05:45:54.531Z,8.38
2023-04-10T05:48:42.070Z,8.41
2023-04-10T05:51:21.135Z,8.34
2023-04-10T05:54:11.503Z,8.33
2023-04-10T05:56:48.837Z,8.44
2023-04-10T05:59:39.195Z,8.41
2023-04-10T06:02:30.292Z,8.43
2023-04-10T06:04:57.819Z,8.57
2023-04-10T06:07:25.636Z,8.72
2023-04-10T06:09:52.966Z,8.93
2023-04-10T06:12:20.641Z,9.29
2023-04-10T06:14:48.347Z,9.74
2023-04-10T06:17:21.388Z,10.03
2023-04-10T06:19:49.035Z,10.36
2023-04-10T06:22:18.121Z,10.89
2023-04-10T06:24:45.456Z,11.20
2023-04-10T06:27:12.988Z,11.61
2023-04-10T06:29:40.947Z,12.02
2023-04-10T06:32:08.431Z,12.44
2023-04-10T06:34:38.190Z,12.67
2023-04-10T06:37:08.099Z,12.79
2023-04-10T06:39:37.554Z,12.98
2023-04-10T06:42:05.034Z,13.13
2023-04-10T06:44:55.931Z,13.31
2023-04-10T06:47:24.827Z,13.17
2023-04-10T06:49:52.222Z,12.98
2023-04-10T06:52:19.859Z,12.97
2023-04-10T06:54:47.076Z,13.25
2023-04-10T06:57:14.544Z,13.40
2023-04-10T06:59:42.143Z,13.43
2023-04-10T07:02:09.660Z,13.75
2023-04-10T07:04:37.057Z,13.99
2023-04-10T07:07:05.408Z,14.19
2023-04-10T07:09:32.541Z,14.12
2023-04-10T07:12:00.197Z,14.30
2023-04-10T07:14:27.361Z,14.47
2023-04-10T07:16:54.796Z,14.59
2023-04-10T07:19:21.945Z,14.56
2023-04-10T07:21:50.293Z,14.76
2023-04-10T07:24:17.980Z,14.97
2023-04-10T07:26:46.376Z,14.92
2023-04-10T07:29:14.278Z,14.71
2023-04-10T07:31:42.085Z,14.62
2023-04-10T07:34:11.326Z,14.88
2023-04-10T07:36:38.991Z,14.79
2023-04-10T07:39:06.255Z,15.07
2023-04-10T07:41:33.828Z,14.97
2023-04-10T07:44:01.232Z,15.01
2023-04-10T07:46:28.728Z,14.79
2023-04-10T07:48:56.180Z,14.72
2023-04-10T07:51:24.041Z,14.81
2023-04-10T07:53:51.473Z,15.04
2023-04-10T07:56:19.725Z,15.21
2023-04-10T07:58:47.582Z,15.15
2023-04-10T08:01:15.920Z,14.66
2023-04-10T08:03:45.233Z,14.17
2023-04-10T08:06:13.064Z,14.06
2023-04-10T08:08:41.232Z,14.04
2023-04-10T08:11:23.592Z,14.11
2023-04-10T08:13:52.124Z,14.15
2023-04-10T08:16:24.083Z,13.88
2023-04-10T08:18:53.168Z,13.86
2023-04-10T08:21:22.344Z,13.85
2023-04-10T08:23:57.134Z,13.71
2023-04-10T08:26:25.623Z,14.00
2023-04-10T08:28:54.464Z,14.30
2023-04-10T08:31:23.617Z,14.36
2023-04-10T08:33:52.149Z,14.47
2023-04-10T08:36:20.644Z,14.53
2023-04-10T08:38:48.764Z,14.67
2023-04-10T08:41:18.182Z,14.91
2023-04-10T08:43:46.433Z,14.92
2023-04-10T08:46:15.146Z,15.05
2023-04-10T08:49:03.934Z,15.18
2023-04-10T08:51:40.078Z,15.21
2023-04-10T08:54:08.665Z,15.16
2023-04-10T08:56:36.340Z,15.20
2023-04-10T08:59:03.818Z,15.42
2023-04-10T09:01:31.655Z,15.33
2023-04-10T09:03:59.932Z,15.51
2023-04-10T09:06:27.749Z,15.60
2023-04-10T09:08:55.085Z,15.51
2023-04-10T09:11:22.460Z,15.41
2023-04-10T09:13:49.639Z,15.34
2023-04-10T09:16:17.090Z,15.23
2023-04-10T09:18:50.049Z,15.18
2023-04-10T09:21:19.574Z,15.11
2023-04-10T09:23:48.364Z,15.28
2023-04-10T09:26:29.851Z,15.19
2023-04-10T09:29:02.297Z,15.14
2023-04-10T09:31:34.554Z,15.04
2023-04-10T09:34:23.487Z,15.10
2023-04-10T09:37:03.323Z,15.09
2023-04-10T09:39:43.166Z,15.00
2023-04-10T09:42:14.942Z,14.93
2023-04-10T09:44:43.049Z,14.85
2023-04-10T09:47:23.177Z,14.93
2023-04-10T09:50:01.002Z,15.17
2023-04-10T09:52:30.279Z,15.11
2023-04-10T09:55:04.055Z,15.34
2023-04-10T09:57:33.057Z,15.33
2023-04-10T10:00:02.168Z,15.29
2023-04-10T10:02:37.196Z,15.50
2023-04-10T10:05:05.592Z,15.56
2023-04-10T10:07:33.209Z,15.67
2023-04-10T10:10:03.177Z,15.45
2023-04-10T10:12:37.263Z,15.21
2023-04-10T10:15:26.202Z,15.03
2023-04-10T10:17:56.541Z,15.10
2023-04-10T10:20:25.602Z,15.23
2023-04-10T10:22:53.082Z,15.38
2023-04-10T10:25:21.081Z,15.51
2023-04-10T10:27:50.303Z,15.45
2023-04-10T10:30:28.793Z,15.56
2023-04-10T10:32:59.119Z,15.61
2023-04-10T10:35:29.326Z,15.56
2023-04-10T10:38:00.853Z,15.73
2023-04-10T10:40:37.056Z,15.69
2023-04-10T10:43:34.276Z,15.52
2023-04-10T10:46:07.783Z,15.44
2023-04-10T10:48:35.188Z,15.52
2023-04-10T10:51:03.639Z,15.75
2023-04-10T10:53:46.870Z,16.12
2023-04-10T10:56:20.024Z,16.07
2023-04-10T10:58:49.022Z,15.81
2023-04-10T11:01:16.869Z,15.79
2023-04-10T11:03:47.209Z,15.89
2023-04-10T11:06:21.929Z,16.01
2023-04-10T11:08:51.612Z,15.95
2023-04-10T11:11:27.376Z,15.99
2023-04-10T11:13:57.729Z,15.85
2023-04-10T11:16:44.103Z,15.67
2023-04-10T11:19:19.055Z,15.62
2023-04-10T11:22:08.330Z,15.75
2023-04-10T11:24:54.815Z,15.58
2023-04-10T11:27:41.795Z,15.48
2023-04-10T11:30:29.153Z,15.72
2023-04-10T11:32:56.992Z,15.78
2023-04-10T11:35:26.006Z,15.96
2023-04-10T11:38:07.842Z,16.05
2023-04-10T11:40:35.483Z,16.07
2023-04-10T11:43:21.524Z,16.19
2023-04-10T11:45:49.182Z,16.28
2023-04-10T11:48:17.458Z,16.13
2023-04-10T11:50:44.936Z,16.01
2023-04-10T11:53:21.791Z,16.17
2023-04-10T11:55:49.224Z,16.45
2023-04-10T11:58:35.281Z,16.62
2023-04-10T12:01:04.513Z,16.67
2023-04-10T12:03:37.186Z,16.67
2023-04-10T12:06:07.688Z,16.87
2023-04-10T12:08:36.438Z,17.02
2023-04-10T12:11:04.123Z,16.99
2023-04-10T12:13:32.291Z,16.88
2023-04-10T12:16:05.682Z,16.91
2023-04-10T12:18:33.210Z,16.63
2023-04-10T12:21:01.074Z,16.31
2023-04-10T12:23:29.542Z,16.12
2023-04-10T12:26:16.480Z,16.07
2023-04-10T12:28:58.145Z,16.29
2023-04-10T12:31:37.094Z,16.45
2023-04-10T12:34:05.766Z,16.60
2023-04-10T12:36:35.311Z,16.69
2023-04-10T12:39:04.182Z,16.89
2023-04-10T12:41:33.855Z,16.97
2023-04-10T12:44:12.457Z,17.13
2023-04-10T12:46:41.431Z,17.28
2023-04-10T12:49:16.060Z,17.43
2023-04-10T12:51:47.598Z,17.68
2023-04-10T12:54:34.960Z,17.66
2023-04-10T12:57:04.215Z,17.44
2023-04-10T12:59:31.718Z,17.43
2023-04-10T13:01:59.420Z,17.49
2023-04-10T13:04:27.167Z,17.34
2023-04-10T13:06:54.800Z,17.56
2023-04-10T13:09:22.440Z,17.32
2023-04-10T13:11:52.184Z,17.15
2023-04-10T13:14:19.770Z,17.22
2023-04-10T13:16:47.272Z,17.22
2023-04-10T13:19:14.520Z,17.33
2023-04-10T13:21:41.905Z,17.25
2023-04-10T13:24:09.152Z,16.87
2023-04-10T13:26:36.474Z,16.56
2023-04-10T13:29:03.727Z,16.36
2023-04-10T13:31:31.348Z,16.19
2023-04-10T13:33:58.463Z,16.18
2023-04-10T13:36:26.936Z,16.07
2023-04-10T13:38:54.547Z,16.05
2023-04-10T13:41:23.772Z,16.11
2023-04-10T13:43:50.994Z,16.23
2023-04-10T13:46:18.844Z,16.43
2023-04-10T13:48:45.971Z,16.60
2023-04-10T13:51:13.327Z,16.69
2023-04-10T13:53:40.775Z,16.92
2023-04-10T13:56:08.667Z,17.01
2023-04-10T13:58:35.986Z,17.15
2023-04-10T14:01:03.602Z,17.00
2023-04-10T14:03:31.291Z,16.92
2023-04-10T14:05:58.739Z,16.95
2023-04-10T14:08:25.868Z,16.98
2023-04-10T14:10:53.402Z,17.01
2023-04-10T14:13:20.960Z,16.87
2023-04-10T14:15:48.470Z,16.63
2023-04-10T14:18:18.425Z,16.41
2023-04-10T14:20:45.927Z,16.36
2023-04-10T14:23:18.415Z,16.37
2023-04-10T14:25:46.551Z,16.35
2023-04-10T14:28:17.992Z,16.37
2023-04-10T14:30:46.233Z,16.30
2023-04-10T14:33:13.348Z,16.24
2023-04-10T14:35:41.172Z,16.31
2023-04-10T14:38:08.448Z,16.47
2023-04-10T14:40:36.977Z,16.64
2023-04-10T14:43:04.216Z,16.71
2023-04-10T14:45:32.683Z,16.75
2023-04-10T14:47:59.940Z,16.69
2023-04-10T14:50:27.572Z,16.54
2023-04-10T14:52:54.706Z,16.55
2023-04-10T14:55:22.045Z,16.56
2023-04-10T14:57:49.179Z,16.54
2023-04-10T15:00:17.003Z,16.51
2023-04-10T15:02:45.274Z,16.35
2023-04-10T15:05:13.449Z,16.09
2023-04-10T15:07:40.574Z,15.99
2023-04-10T15:10:10.640Z,15.95
2023-04-10T15:12:38.110Z,15.87
2023-04-10T15:15:06.521Z,15.85
2023-04-10T15:17:33.818Z,15.72
2023-04-10T15:20:01.227Z,15.73
2023-04-10T15:22:29.537Z,15.74
2023-04-10T15:24:57.037Z,15.72
2023-04-10T15:27:25.016Z,15.69
2023-04-10T15:29:52.445Z,15.60
2023-04-10T15:32:19.698Z,15.67
2023-04-10T15:34:47.167Z,15.75
2023-04-10T15:37:14.347Z,15.76
2023-04-10T15:39:41.721Z,15.88
2023-04-10T15:42:09.028Z,15.87
2023-04-10T15:44:36.456Z,15.81
2023-04-10T15:47:03.836Z,15.93
2023-04-10T15:49:37.835Z,16.03
2023-04-10T15:52:06.712Z,16.08
2023-04-10T15:54:35.047Z,16.19
2023-04-10T15:57:03.783Z,16.26
2023-04-10T15:59:32.821Z,16.30
2023-04-10T16:01:59.955Z,16.45
2023-04-10T16:04:27.787Z,16.43
2023-04-10T16:06:56.694Z,16.37
2023-04-10T16:09:26.646Z,16.44
2023-04-10T16:11:55.021Z,16.31
2023-04-10T16:14:22.815Z,16.38
2023-04-10T16:16:51.142Z,16.10
2023-04-10T16:19:18.561Z,16.09
2023-04-10T16:21:45.960Z,16.02
2023-04-10T16:24:13.484Z,15.88
2023-04-10T16:26:40.761Z,15.85
2023-04-10T16:29:08.203Z,15.79
2023-04-10T16:31:35.562Z,15.56
2023-04-10T16:34:03.458Z,15.57
2023-04-10T16:36:58.236Z,15.53
2023-04-10T16:39:25.869Z,15.55
2023-04-10T16:41:53.176Z,15.52
2023-04-10T16:44:20.741Z,15.51
2023-04-10T16:46:47.974Z,15.38
2023-04-10T16:49:15.732Z,15.38
2023-04-10T16:51:42.876Z,15.32
2023-04-10T16:54:10.489Z,15.23
2023-04-10T16:56:37.642Z,15.11
2023-04-10T16:59:05.249Z,15.04
2023-04-10T17:01:35.230Z,14.86
2023-04-10T17:04:02.712Z,14.79
2023-04-10T17:06:30.092Z,14.66
2023-04-10T17:08:58.077Z,14.58
2023-04-10T17:11:25.496Z,14.48
2023-04-10T17:13:52.825Z,14.45
2023-04-10T17:16:20.121Z,14.26
2023-04-10T17:18:48.927Z,14.11
2023-04-10T17:21:16.256Z,14.00
2023-04-10T17:23:43.839Z,13.91
2023-04-10T17:26:15.968Z,13.84
2023-04-10T17:28:45.298Z,13.70
2023-04-10T17:31:13.430Z,13.61
2023-04-10T17:33:43.732Z,13.51
2023-04-10T17:36:12.642Z,13.44
2023-04-10T17:38:42.113Z,13.30
2023-04-10T17:41:10.015Z,13.16
2023-04-10T17:43:37.736Z,12.96
2023-04-10T17:46:05.839Z,12.88
2023-04-10T17:48:34.564Z,12.78
2023-04-10T17:51:06.721Z,12.71
2023-04-10T17:53:34.216Z,12.62
2023-04-10T17:56:01.827Z,12.58
2023-04-10T17:58:29.584Z,12.58
2023-04-10T18:00:56.902Z,12.44
2023-04-10T18:03:24.610Z,12.37
2023-04-10T18:05:52.020Z,12.31
2023-04-10T18:08:19.805Z,12.37
2023-04-10T18:10:47.199Z,12.31
2023-04-10T18:13:14.791Z,12.18
2023-04-10T18:15:42.162Z,12.09
2023-04-10T18:18:09.924Z,11.97
2023-04-10T18:20:37.270Z,11.86
2023-04-10T18:23:06.549Z,11.70
2023-04-10T18:25:34.666Z,11.66
2023-04-10T18:30:32.638Z,11.54
2023-04-10T18:33:00.166Z,11.47
2023-04-10T18:35:28.280Z,11.35
2023-04-10T18:37:57.166Z,11.32
2023-04-10T18:40:24.664Z,11.22
2023-04-10T18:42:52.055Z,11.03
2023-04-10T18:45:19.796Z,10.91
2023-04-10T18:47:47.191Z,10.79
2023-04-10T18:50:14.573Z,10.76
2023-04-10T18:52:42.075Z,10.68
2023-04-10T18:55:09.549Z,10.68
2023-04-10T18:57:37.267Z,10.67
2023-04-10T19:00:06.911Z,10.61
2023-04-10T19:02:34.659Z,10.54
2023-04-10T19:05:02.196Z,10.50
2023-04-10T19:07:30.045Z,10.42
2023-04-10T19:09:57.327Z,10.34
2023-04-10T19:12:24.954Z,10.23
2023-04-10T19:14:52.112Z,10.10
2023-04-10T19:17:21.896Z,10.00
2023-04-10T19:19:49.265Z,9.81
2023-04-10T19:22:17.251Z,9.72
2023-04-10T19:24:44.561Z,9.67
2023-04-10T19:27:12.413Z,9.60
2023-04-10T19:29:39.730Z,9.56
2023-04-10T19:32:07.249Z,9.43
2023-04-10T19:34:34.591Z,9.39
2023-04-10T19:37:02.440Z,9.36
2023-04-10T19:39:29.544Z,9.39
2023-04-10T19:41:57.738Z,9.42
2023-04-10T19:44:24.963Z,9.36
2023-04-10T19:46:52.425Z,9.25
2023-04-10T19:49:19.823Z,9.11
2023-04-10T19:51:47.630Z,8.96
2023-04-10T19:54:14.759Z,8.74
2023-04-10T19:56:42.747Z,8.67
2023-04-10T19:59:10.080Z,8.57
2023-04-10T20:01:37.739Z,8.51
2023-04-10T20:04:05.267Z,8.49
2023-04-10T20:06:33.241Z,8.44
2023-04-10T20:09:00.816Z,8.31
2023-04-10T20:11:30.701Z,8.33
2023-04-10T20:13:58.130Z,8.28
2023-04-10T20:16:27.037Z,8.19
2023-04-10T20:18:55.608Z,8.06
2023-04-10T20:21:23.415Z,7.98
2023-04-10T20:23:50.901Z,7.88
2023-04-10T20:26:18.574Z,7.76
2023-04-10T20:28:45.751Z,7.64
2023-04-10T20:31:13.328Z,7.58
2023-04-10T20:33:40.949Z,7.52
2023-04-10T20:36:08.952Z,7.49
2023-04-10T20:38:36.734Z,7.43
2023-04-10T20:41:04.529Z,7.24
2023-04-10T20:43:32.200Z,7.11
2023-04-10T20:46:07.989Z,7.04
2023-04-10T20:48:38.708Z,6.93
2023-04-10T20:51:06.687Z,6.91
2023-04-10T20:53:34.175Z,6.87
2023-04-10T20:56:03.051Z,6.83
2023-04-10T20:58:32.078Z,6.77
2023-04-10T21:00:59.475Z,6.78
2023-04-10T21:03:26.786Z,6.70
2023-04-10T21:05:54.309Z,6.70
2023-04-10T21:08:21.967Z,6.70
2023-04-10T21:10:49.522Z,6.65
2023-04-10T21:13:16.836Z,6.67
2023-04-10T21:15:44.184Z,6.65
2023-04-10T21:18:11.508Z,6.63
2023-04-10T21:20:39.314Z,6.60
2023-04-10T21:23:06.500Z,6.55
2023-04-10T21:25:35.432Z,6.56
2023-04-10T21:28:02.759Z,6.52
2023-04-10T21:30:30.433Z,6.55
2023-04-10T21:32:57.846Z,6.51
2023-04-10T21:35:25.438Z,6.45
2023-04-10T21:37:58.905Z,6.39
2023-04-10T21:40:34.317Z,6.33
2023-04-10T21:43:02.431Z,6.20
2023-04-10T21:45:30.952Z,6.23
2023-04-10T21:47:59.987Z,6.16
2023-04-10T21:50:27.503Z,6.12
2023-04-10T21:52:54.723Z,6.10
2023-04-10T21:55:22.161Z,6.05
2023-04-10T21:57:49.210Z,5.97
2023-04-10T22:00:17.088Z,5.89
2023-04-10T22:02:45.153Z,5.74
2023-04-10T22:05:15.573Z,5.66
2023-04-10T22:07:42.888Z,5.62
2023-04-10T22:10:10.462Z,5.57
2023-04-10T22:12:37.791Z,5.50
2023-04-10T22:15:07.915Z,5.42
2023-04-10T22:17:35.098Z,5.39
2023-04-10T22:20:02.469Z,5.43
2023-04-10T22:22:29.668Z,5.33
2023-04-10T22:24:57.011Z,5.37
2023-04-10T22:27:24.220Z,5.36
2023-04-10T22:30:02.158Z,5.31
2023-04-10T22:32:31.050Z,5.32
2023-04-10T22:34:59.669Z,5.27
2023-04-10T22:37:27.693Z,5.25
2023-04-10T22:39:56.384Z,5.27
2023-04-10T22:42:24.294Z,5.22
2023-04-10T22:44:51.737Z,5.15
2023-04-10T22:47:19.177Z,5.01
2023-04-10T22:49:46.620Z,4.98
2023-04-10T22:52:13.727Z,4.96
2023-04-10T22:54:41.072Z,4.90
2023-04-10T22:57:08.553Z,4.91
2023-04-10T22:59:37.086Z,4.86
2023-04-10T23:02:04.516Z,4.81
2023-04-10T23:04:32.151Z,4.80
2023-04-10T23:06:59.357Z,4.76
2023-04-10T23:09:26.809Z,4.80
2023-04-10T23:11:53.949Z,4.77
2023-04-10T23:14:21.474Z,4.74
2023-04-10T23:16:49.618Z,4.75
2023-04-10T23:19:18.517Z,4.66
2023-04-10T23:21:45.866Z,4.76
2023-04-10T23:24:13.398Z,4.64
2023-04-10T23:26:40.712Z,4.59
2023-04-10T23:29:08.428Z,4.55
2023-04-10T23:31:35.696Z,4.46
2023-04-10T23:34:03.707Z,4.29
2023-04-10T23:36:31.736Z,4.13
2023-04-10T23:38:59.478Z,4.20
2023-04-10T23:41:26.846Z,4.22
2023-04-10T23:43:54.598Z,4.20
2023-04-10T23:46:22.070Z,4.25
2023-04-10T23:48:49.763Z,4.18
2023-04-10T23:51:17.055Z,4.09
2023-04-10T23:53:44.882Z,4.13
2023-04-10T23:56:12.375Z,4.09
2023-04-10T23:58:40.066Z,4.12
